sensor_id;sensor_type;location;lat;lon;timestamp;P1;durP1;ratioP1;P2;durP2;ratioP2
65751;SDS011;52486;51.098;13.770;2023-05-19T00:01:05;0.95;;;0.85;;
65751;SDS011;52486;51.098;13.770;2023-05-19T00:03:32;1.10;;;1.00;;
65751;SDS011;52486;51.098;13.770;2023-05-19T00:05:59;1.30;;;0.98;;
65751;SDS011;52486;51.098;13.770;2023-05-19T00:08:28;1.00;;;0.85;;
65751;SDS011;52486;51.098;13.770;2023-05-19T00:10:56;1.48;;;1.00;;
65751;SDS011;52486;51.098;13.770;2023-05-19T00:13:22;0.90;;;0.90;;
65751;SDS011;52486;51.098;13.770;2023-05-19T00:15:48;0.77;;;0.77;;
65751;SDS011;52486;51.098;13.770;2023-05-19T00:18:15;1.52;;;1.00;;
65751;SDS011;52486;51.098;13.770;2023-05-19T00:20:41;1.50;;;1.00;;
65751;SDS011;52486;51.098;13.770;2023-05-19T00:23:09;0.77;;;0.77;;
65751;SDS011;52486;51.098;13.770;2023-05-19T00:25:35;1.60;;;0.93;;
65751;SDS011;52486;51.098;13.770;2023-05-19T00:28:01;1.38;;;1.10;;
65751;SDS011;52486;51.098;13.770;2023-05-19T00:30:31;1.40;;;0.85;;
65751;SDS011;52486;51.098;13.770;2023-05-19T00:32:57;1.15;;;0.85;;
65751;SDS011;52486;51.098;13.770;2023-05-19T00:35:23;0.90;;;0.80;;
65751;SDS011;52486;51.098;13.770;2023-05-19T00:37:49;0.95;;;0.82;;
65751;SDS011;52486;51.098;13.770;2023-05-19T00:40:15;0.80;;;0.80;;
65751;SDS011;52486;51.098;13.770;2023-05-19T00:42:41;1.13;;;1.02;;
65751;SDS011;52486;51.098;13.770;2023-05-19T00:45:07;1.10;;;1.00;;
65751;SDS011;52486;51.098;13.770;2023-05-19T00:47:33;1.35;;;1.13;;
65751;SDS011;52486;51.098;13.770;2023-05-19T00:50:00;0.98;;;0.80;;
65751;SDS011;52486;51.098;13.770;2023-05-19T00:52:26;1.55;;;0.80;;
65751;SDS011;52486;51.098;13.770;2023-05-19T00:54:52;1.10;;;1.00;;
65751;SDS011;52486;51.098;13.770;2023-05-19T00:57:19;0.82;;;0.82;;
65751;SDS011;52486;51.098;13.770;2023-05-19T00:59:46;1.25;;;1.02;;
65751;SDS011;52486;51.098;13.770;2023-05-19T01:02:12;0.85;;;0.80;;
65751;SDS011;52486;51.098;13.770;2023-05-19T01:04:39;0.90;;;0.90;;
65751;SDS011;52486;51.098;13.770;2023-05-19T01:07:07;1.02;;;0.93;;
65751;SDS011;52486;51.098;13.770;2023-05-19T01:09:34;1.42;;;0.90;;
65751;SDS011;52486;51.098;13.770;2023-05-19T01:12:01;1.02;;;0.93;;
65751;SDS011;52486;51.098;13.770;2023-05-19T01:14:27;1.10;;;0.77;;
65751;SDS011;52486;51.098;13.770;2023-05-19T01:17:00;1.00;;;0.90;;
65751;SDS011;52486;51.098;13.770;2023-05-19T01:32:14;1.15;;;0.80;;
65751;SDS011;52486;51.098;13.770;2023-05-19T01:34:42;0.98;;;0.90;;
65751;SDS011;52486;51.098;13.770;2023-05-19T01:37:09;1.23;;;1.02;;
65751;SDS011;52486;51.098;13.770;2023-05-19T01:39:36;1.42;;;0.93;;
65751;SDS011;52486;51.098;13.770;2023-05-19T01:42:03;1.75;;;1.05;;
65751;SDS011;52486;51.098;13.770;2023-05-19T01:44:29;1.40;;;0.98;;
65751;SDS011;52486;51.098;13.770;2023-05-19T01:46:56;0.80;;;0.80;;
65751;SDS011;52486;51.098;13.770;2023-05-19T01:49:22;0.80;;;0.77;;
65751;SDS011;52486;51.098;13.770;2023-05-19T01:51:48;1.40;;;1.00;;
65751;SDS011;52486;51.098;13.770;2023-05-19T01:54:14;1.52;;;1.20;;
65751;SDS011;52486;51.098;13.770;2023-05-19T01:56:44;1.10;;;1.00;;
65751;SDS011;52486;51.098;13.770;2023-05-19T01:59:31;1.00;;;1.00;;
65751;SDS011;52486;51.098;13.770;2023-05-19T02:02:01;1.67;;;0.90;;
65751;SDS011;52486;51.098;13.770;2023-05-19T02:07:19;1.27;;;1.17;;
65751;SDS011;52486;51.098;13.770;2023-05-19T02:12:21;1.95;;;0.85;;
65751;SDS011;52486;51.098;13.770;2023-05-19T02:17:15;1.17;;;1.08;;
65751;SDS011;52486;51.098;13.770;2023-05-19T02:19:42;1.13;;;0.98;;
65751;SDS011;52486;51.098;13.770;2023-05-19T02:22:09;1.30;;;0.80;;
65751;SDS011;52486;51.098;13.770;2023-05-19T02:24:35;1.30;;;1.20;;
65751;SDS011;52486;51.098;13.770;2023-05-19T02:27:01;1.55;;;1.10;;
65751;SDS011;52486;51.098;13.770;2023-05-19T02:29:28;0.80;;;0.70;;
65751;SDS011;52486;51.098;13.770;2023-05-19T02:31:54;1.50;;;1.00;;
65751;SDS011;52486;51.098;13.770;2023-05-19T02:34:20;1.15;;;0.90;;
65751;SDS011;52486;51.098;13.770;2023-05-19T02:36:46;1.60;;;1.10;;
65751;SDS011;52486;51.098;13.770;2023-05-19T02:39:16;1.20;;;1.10;;
65751;SDS011;52486;51.098;13.770;2023-05-19T02:41:42;1.17;;;1.08;;
65751;SDS011;52486;51.098;13.770;2023-05-19T02:44:08;0.90;;;0.90;;
65751;SDS011;52486;51.098;13.770;2023-05-19T02:46:34;1.15;;;0.93;;
65751;SDS011;52486;51.098;13.770;2023-05-19T02:49:00;1.48;;;1.15;;
65751;SDS011;52486;51.098;13.770;2023-05-19T02:51:26;1.15;;;1.00;;
65751;SDS011;52486;51.098;13.770;2023-05-19T02:53:52;1.27;;;1.05;;
65751;SDS011;52486;51.098;13.770;2023-05-19T02:56:18;1.10;;;1.00;;
65751;SDS011;52486;51.098;13.770;2023-05-19T02:58:45;1.35;;;1.05;;
65751;SDS011;52486;51.098;13.770;2023-05-19T03:01:11;0.90;;;0.90;;
65751;SDS011;52486;51.098;13.770;2023-05-19T03:03:37;1.00;;;0.90;;
65751;SDS011;52486;51.098;13.770;2023-05-19T03:06:03;2.13;;;1.10;;
65751;SDS011;52486;51.098;13.770;2023-05-19T03:08:33;1.27;;;0.95;;
65751;SDS011;52486;51.098;13.770;2023-05-19T03:10:59;1.23;;;1.10;;
65751;SDS011;52486;51.098;13.770;2023-05-19T03:13:25;1.10;;;1.00;;
65751;SDS011;52486;51.098;13.770;2023-05-19T03:15:51;1.73;;;1.10;;
65751;SDS011;52486;51.098;13.770;2023-05-19T03:18:17;1.02;;;0.90;;
65751;SDS011;52486;51.098;13.770;2023-05-19T03:20:43;1.40;;;1.05;;
65751;SDS011;52486;51.098;13.770;2023-05-19T03:23:10;1.35;;;1.10;;
65751;SDS011;52486;51.098;13.770;2023-05-19T03:25:36;0.80;;;0.80;;
65751;SDS011;52486;51.098;13.770;2023-05-19T03:28:02;1.50;;;1.00;;
65751;SDS011;52486;51.098;13.770;2023-05-19T03:30:28;1.58;;;1.23;;
65751;SDS011;52486;51.098;13.770;2023-05-19T03:32:55;1.35;;;1.02;;
65751;SDS011;52486;51.098;13.770;2023-05-19T03:35:21;1.75;;;1.02;;
65751;SDS011;52486;51.098;13.770;2023-05-19T03:37:47;1.33;;;1.23;;
65751;SDS011;52486;51.098;13.770;2023-05-19T03:40:13;1.05;;;0.90;;
65751;SDS011;52486;51.098;13.770;2023-05-19T03:42:39;1.77;;;1.20;;
65751;SDS011;52486;51.098;13.770;2023-05-19T03:45:05;1.23;;;1.02;;
65751;SDS011;52486;51.098;13.770;2023-05-19T03:47:32;1.15;;;1.00;;
65751;SDS011;52486;51.098;13.770;2023-05-19T03:49:58;1.67;;;1.02;;
65751;SDS011;52486;51.098;13.770;2023-05-19T03:52:25;1.30;;;1.15;;
65751;SDS011;52486;51.098;13.770;2023-05-19T03:54:51;1.60;;;1.27;;
65751;SDS011;52486;51.098;13.770;2023-05-19T03:57:17;1.23;;;0.95;;
65751;SDS011;52486;51.098;13.770;2023-05-19T03:59:43;1.77;;;1.08;;
65751;SDS011;52486;51.098;13.770;2023-05-19T04:02:10;1.80;;;1.33;;
65751;SDS011;52486;51.098;13.770;2023-05-19T04:04:36;1.40;;;1.17;;
65751;SDS011;52486;51.098;13.770;2023-05-19T04:07:02;1.42;;;1.33;;
65751;SDS011;52486;51.098;13.770;2023-05-19T04:09:28;1.50;;;1.20;;
65751;SDS011;52486;51.098;13.770;2023-05-19T04:11:56;1.58;;;1.08;;
65751;SDS011;52486;51.098;13.770;2023-05-19T04:14:22;1.50;;;1.30;;
65751;SDS011;52486;51.098;13.770;2023-05-19T04:16:48;1.63;;;1.45;;
65751;SDS011;52486;51.098;13.770;2023-05-19T04:19:14;1.55;;;1.30;;
65751;SDS011;52486;51.098;13.770;2023-05-19T04:21:41;1.40;;;1.30;;
65751;SDS011;52486;51.098;13.770;2023-05-19T04:24:07;2.20;;;1.48;;
65751;SDS011;52486;51.098;13.770;2023-05-19T04:26:34;2.17;;;1.40;;
65751;SDS011;52486;51.098;13.770;2023-05-19T04:29:02;1.55;;;1.30;;
65751;SDS011;52486;51.098;13.770;2023-05-19T04:31:29;2.17;;;1.30;;
65751;SDS011;52486;51.098;13.770;2023-05-19T04:33:55;2.20;;;1.60;;
65751;SDS011;52486;51.098;13.770;2023-05-19T04:36:21;1.80;;;1.52;;
65751;SDS011;52486;51.098;13.770;2023-05-19T04:38:48;1.52;;;1.42;;
65751;SDS011;52486;51.098;13.770;2023-05-19T04:41:18;2.05;;;1.30;;
65751;SDS011;52486;51.098;13.770;2023-05-19T04:43:45;2.63;;;1.80;;
65751;SDS011;52486;51.098;13.770;2023-05-19T04:46:12;2.10;;;1.63;;
65751;SDS011;52486;51.098;13.770;2023-05-19T04:48:38;2.67;;;1.55;;
65751;SDS011;52486;51.098;13.770;2023-05-19T04:51:05;1.65;;;1.55;;
65751;SDS011;52486;51.098;13.770;2023-05-19T04:53:31;2.38;;;1.42;;
65751;SDS011;52486;51.098;13.770;2023-05-19T04:55:57;1.98;;;1.70;;
65751;SDS011;52486;51.098;13.770;2023-05-19T04:58:26;2.88;;;2.03;;
65751;SDS011;52486;51.098;13.770;2023-05-19T05:00:53;1.85;;;1.65;;
65751;SDS011;52486;51.098;13.770;2023-05-19T05:03:22;2.33;;;1.83;;
65751;SDS011;52486;51.098;13.770;2023-05-19T05:05:49;2.15;;;1.60;;
65751;SDS011;52486;51.098;13.770;2023-05-19T05:08:15;2.65;;;1.80;;
65751;SDS011;52486;51.098;13.770;2023-05-19T05:10:48;1.98;;;1.70;;
65751;SDS011;52486;51.098;13.770;2023-05-19T05:13:15;1.95;;;1.70;;
65751;SDS011;52486;51.098;13.770;2023-05-19T05:15:41;2.55;;;1.98;;
65751;SDS011;52486;51.098;13.770;2023-05-19T05:18:07;2.30;;;2.00;;
65751;SDS011;52486;51.098;13.770;2023-05-19T05:20:33;4.72;;;2.33;;
65751;SDS011;52486;51.098;13.770;2023-05-19T05:23:00;3.92;;;2.00;;
65751;SDS011;52486;51.098;13.770;2023-05-19T05:25:26;5.85;;;2.00;;
65751;SDS011;52486;51.098;13.770;2023-05-19T05:27:52;2.72;;;2.10;;
65751;SDS011;52486;51.098;13.770;2023-05-19T05:30:18;2.22;;;2.00;;
65751;SDS011;52486;51.098;13.770;2023-05-19T05:32:45;2.58;;;1.70;;
65751;SDS011;52486;51.098;13.770;2023-05-19T05:35:11;2.72;;;1.90;;
65751;SDS011;52486;51.098;13.770;2023-05-19T05:37:37;2.75;;;1.60;;
65751;SDS011;52486;51.098;13.770;2023-05-19T05:40:03;2.60;;;1.90;;
65751;SDS011;52486;51.098;13.770;2023-05-19T05:42:31;3.58;;;2.03;;
65751;SDS011;52486;51.098;13.770;2023-05-19T05:44:57;1.60;;;1.50;;
65751;SDS011;52486;51.098;13.770;2023-05-19T05:47:23;3.67;;;1.83;;
65751;SDS011;52486;51.098;13.770;2023-05-19T05:49:49;4.15;;;1.95;;
65751;SDS011;52486;51.098;13.770;2023-05-19T05:52:15;3.70;;;1.80;;
65751;SDS011;52486;51.098;13.770;2023-05-19T05:54:43;5.30;;;1.70;;
65751;SDS011;52486;51.098;13.770;2023-05-19T05:57:10;2.63;;;1.92;;
65751;SDS011;52486;51.098;13.770;2023-05-19T05:59:36;2.53;;;1.60;;
65751;SDS011;52486;51.098;13.770;2023-05-19T06:02:02;3.42;;;1.70;;
65751;SDS011;52486;51.098;13.770;2023-05-19T06:04:29;2.83;;;1.60;;
65751;SDS011;52486;51.098;13.770;2023-05-19T06:06:55;3.78;;;1.65;;
65751;SDS011;52486;51.098;13.770;2023-05-19T06:09:25;3.28;;;1.40;;
65751;SDS011;52486;51.098;13.770;2023-05-19T06:11:51;5.97;;;1.83;;
65751;SDS011;52486;51.098;13.770;2023-05-19T06:14:17;6.18;;;1.85;;
65751;SDS011;52486;51.098;13.770;2023-05-19T06:16:43;2.60;;;1.95;;
65751;SDS011;52486;51.098;13.770;2023-05-19T06:19:12;2.95;;;1.88;;
65751;SDS011;52486;51.098;13.770;2023-05-19T06:21:38;3.58;;;1.90;;
65751;SDS011;52486;51.098;13.770;2023-05-19T06:24:06;1.90;;;1.65;;
65751;SDS011;52486;51.098;13.770;2023-05-19T06:26:32;5.68;;;2.03;;
65751;SDS011;52486;51.098;13.770;2023-05-19T06:28:58;4.40;;;1.80;;
65751;SDS011;52486;51.098;13.770;2023-05-19T06:31:27;2.75;;;1.70;;
65751;SDS011;52486;51.098;13.770;2023-05-19T06:33:53;2.33;;;1.83;;
65751;SDS011;52486;51.098;13.770;2023-05-19T06:36:19;2.83;;;1.95;;
65751;SDS011;52486;51.098;13.770;2023-05-19T06:38:45;3.97;;;1.67;;
65751;SDS011;52486;51.098;13.770;2023-05-19T06:41:11;3.78;;;1.98;;
65751;SDS011;52486;51.098;13.770;2023-05-19T06:43:37;3.67;;;1.58;;
65751;SDS011;52486;51.098;13.770;2023-05-19T06:46:04;4.25;;;2.00;;
65751;SDS011;52486;51.098;13.770;2023-05-19T06:48:30;2.97;;;1.90;;
65751;SDS011;52486;51.098;13.770;2023-05-19T06:50:56;9.55;;;1.90;;
65751;SDS011;52486;51.098;13.770;2023-05-19T06:53:22;2.92;;;1.70;;
65751;SDS011;52486;51.098;13.770;2023-05-19T06:55:48;5.15;;;1.80;;
65751;SDS011;52486;51.098;13.770;2023-05-19T06:58:15;7.47;;;1.90;;
65751;SDS011;52486;51.098;13.770;2023-05-19T07:00:41;5.53;;;2.05;;
65751;SDS011;52486;51.098;13.770;2023-05-19T07:03:07;3.20;;;1.58;;
65751;SDS011;52486;51.098;13.770;2023-05-19T07:05:33;2.35;;;2.00;;
65751;SDS011;52486;51.098;13.770;2023-05-19T07:07:59;5.90;;;2.10;;
65751;SDS011;52486;51.098;13.770;2023-05-19T07:10:26;7.15;;;2.00;;
65751;SDS011;52486;51.098;13.770;2023-05-19T07:12:52;3.03;;;1.98;;
65751;SDS011;52486;51.098;13.770;2023-05-19T07:15:18;10.57;;;1.80;;
65751;SDS011;52486;51.098;13.770;2023-05-19T07:17:44;4.28;;;2.00;;
65751;SDS011;52486;51.098;13.770;2023-05-19T07:20:10;5.05;;;1.90;;
65751;SDS011;52486;51.098;13.770;2023-05-19T07:22:36;5.35;;;2.08;;
65751;SDS011;52486;51.098;13.770;2023-05-19T07:25:04;4.35;;;2.28;;
65751;SDS011;52486;51.098;13.770;2023-05-19T07:27:30;8.18;;;2.30;;
65751;SDS011;52486;51.098;13.770;2023-05-19T07:29:56;9.50;;;2.40;;
65751;SDS011;52486;51.098;13.770;2023-05-19T07:32:23;4.07;;;2.10;;
65751;SDS011;52486;51.098;13.770;2023-05-19T07:34:52;2.83;;;2.03;;
65751;SDS011;52486;51.098;13.770;2023-05-19T07:37:18;3.35;;;2.08;;
65751;SDS011;52486;51.098;13.770;2023-05-19T07:39:45;2.55;;;1.80;;
65751;SDS011;52486;51.098;13.770;2023-05-19T07:42:11;2.47;;;1.88;;
65751;SDS011;52486;51.098;13.770;2023-05-19T07:44:37;2.72;;;2.22;;
65751;SDS011;52486;51.098;13.770;2023-05-19T07:47:03;7.68;;;2.20;;
65751;SDS011;52486;51.098;13.770;2023-05-19T07:49:29;9.52;;;1.80;;
65751;SDS011;52486;51.098;13.770;2023-05-19T07:51:55;4.93;;;1.90;;
65751;SDS011;52486;51.098;13.770;2023-05-19T07:54:21;4.82;;;1.90;;
65751;SDS011;52486;51.098;13.770;2023-05-19T07:56:48;3.00;;;1.70;;
65751;SDS011;52486;51.098;13.770;2023-05-19T07:59:14;6.20;;;1.90;;
65751;SDS011;52486;51.098;13.770;2023-05-19T08:01:40;5.57;;;2.17;;
65751;SDS011;52486;51.098;13.770;2023-05-19T08:04:06;3.45;;;1.75;;
65751;SDS011;52486;51.098;13.770;2023-05-19T08:06:33;2.22;;;1.42;;
65751;SDS011;52486;51.098;13.770;2023-05-19T08:08:59;2.70;;;1.55;;
65751;SDS011;52486;51.098;13.770;2023-05-19T08:11:25;2.08;;;1.80;;
65751;SDS011;52486;51.098;13.770;2023-05-19T08:13:52;2.63;;;1.90;;
65751;SDS011;52486;51.098;13.770;2023-05-19T08:16:18;3.45;;;1.80;;
65751;SDS011;52486;51.098;13.770;2023-05-19T08:18:44;2.78;;;1.50;;
65751;SDS011;52486;51.098;13.770;2023-05-19T08:21:10;5.68;;;1.60;;
65751;SDS011;52486;51.098;13.770;2023-05-19T08:23:36;5.20;;;2.08;;
65751;SDS011;52486;51.098;13.770;2023-05-19T08:26:03;7.95;;;1.67;;
65751;SDS011;52486;51.098;13.770;2023-05-19T08:28:29;6.38;;;1.60;;
65751;SDS011;52486;51.098;13.770;2023-05-19T08:30:56;2.78;;;1.38;;
65751;SDS011;52486;51.098;13.770;2023-05-19T08:33:22;2.90;;;1.58;;
65751;SDS011;52486;51.098;13.770;2023-05-19T08:35:48;4.55;;;1.40;;
65751;SDS011;52486;51.098;13.770;2023-05-19T08:38:14;5.90;;;2.03;;
65751;SDS011;52486;51.098;13.770;2023-05-19T08:40:41;2.58;;;1.50;;
65751;SDS011;52486;51.098;13.770;2023-05-19T08:43:07;3.95;;;1.40;;
65751;SDS011;52486;51.098;13.770;2023-05-19T08:45:34;3.53;;;1.65;;
65751;SDS011;52486;51.098;13.770;2023-05-19T08:48:02;2.72;;;1.70;;
65751;SDS011;52486;51.098;13.770;2023-05-19T08:50:29;3.70;;;1.50;;
65751;SDS011;52486;51.098;13.770;2023-05-19T08:53:00;3.08;;;1.65;;
65751;SDS011;52486;51.098;13.770;2023-05-19T08:57:52;3.33;;;1.50;;
65751;SDS011;52486;51.098;13.770;2023-05-19T09:00:19;4.78;;;1.40;;
65751;SDS011;52486;51.098;13.770;2023-05-19T09:02:46;4.45;;;1.75;;
65751;SDS011;52486;51.098;13.770;2023-05-19T09:05:15;4.85;;;1.65;;
65751;SDS011;52486;51.098;13.770;2023-05-19T09:07:42;1.70;;;1.40;;
65751;SDS011;52486;51.098;13.770;2023-05-19T09:10:08;1.98;;;1.42;;
65751;SDS011;52486;51.098;13.770;2023-05-19T09:12:39;2.78;;;1.48;;
65751;SDS011;52486;51.098;13.770;2023-05-19T09:15:06;3.50;;;1.38;;
65751;SDS011;52486;51.098;13.770;2023-05-19T09:17:33;2.17;;;1.50;;
65751;SDS011;52486;51.098;13.770;2023-05-19T09:20:01;2.85;;;1.50;;
65751;SDS011;52486;51.098;13.770;2023-05-19T09:22:29;1.77;;;1.40;;
65751;SDS011;52486;51.098;13.770;2023-05-19T09:24:55;1.83;;;1.20;;
65751;SDS011;52486;51.098;13.770;2023-05-19T09:27:21;2.83;;;1.40;;
65751;SDS011;52486;51.098;13.770;2023-05-19T09:29:48;2.45;;;1.40;;
65751;SDS011;52486;51.098;13.770;2023-05-19T09:32:24;1.67;;;1.23;;
65751;SDS011;52486;51.098;13.770;2023-05-19T09:34:51;4.05;;;1.40;;
65751;SDS011;52486;51.098;13.770;2023-05-19T09:37:21;1.63;;;1.17;;
65751;SDS011;52486;51.098;13.770;2023-05-19T09:39:48;2.08;;;1.48;;
65751;SDS011;52486;51.098;13.770;2023-05-19T09:42:22;2.15;;;1.38;;
65751;SDS011;52486;51.098;13.770;2023-05-19T09:44:50;3.05;;;1.70;;
65751;SDS011;52486;51.098;13.770;2023-05-19T09:47:16;1.25;;;1.10;;
65751;SDS011;52486;51.098;13.770;2023-05-19T09:49:46;2.92;;;1.42;;
65751;SDS011;52486;51.098;13.770;2023-05-19T09:52:13;1.30;;;1.10;;
65751;SDS011;52486;51.098;13.770;2023-05-19T09:54:43;1.40;;;1.30;;
65751;SDS011;52486;51.098;13.770;2023-05-19T09:57:10;2.05;;;1.20;;
65751;SDS011;52486;51.098;13.770;2023-05-19T09:59:36;2.25;;;1.40;;
65751;SDS011;52486;51.098;13.770;2023-05-19T10:02:03;1.50;;;1.33;;
65751;SDS011;52486;51.098;13.770;2023-05-19T10:04:29;1.40;;;1.20;;
65751;SDS011;52486;51.098;13.770;2023-05-19T10:06:56;2.10;;;1.30;;
65751;SDS011;52486;51.098;13.770;2023-05-19T10:09:26;2.53;;;1.43;;
65751;SDS011;52486;51.098;13.770;2023-05-19T10:11:53;1.20;;;1.10;;
65751;SDS011;52486;51.098;13.770;2023-05-19T10:14:27;1.30;;;1.13;;
65751;SDS011;52486;51.098;13.770;2023-05-19T10:16:54;1.73;;;1.20;;
65751;SDS011;52486;51.098;13.770;2023-05-19T10:19:22;2.40;;;1.30;;
65751;SDS011;52486;51.098;13.770;2023-05-19T10:21:48;1.70;;;1.20;;
65751;SDS011;52486;51.098;13.770;2023-05-19T10:24:15;2.58;;;1.20;;
65751;SDS011;52486;51.098;13.770;2023-05-19T10:26:45;2.00;;;1.35;;
65751;SDS011;52486;51.098;13.770;2023-05-19T10:29:13;3.03;;;1.58;;
65751;SDS011;52486;51.098;13.770;2023-05-19T10:31:40;2.50;;;1.50;;
65751;SDS011;52486;51.098;13.770;2023-05-19T10:39:36;1.88;;;1.33;;
65751;SDS011;52486;51.098;13.770;2023-05-19T10:42:18;1.55;;;1.23;;
65751;SDS011;52486;51.098;13.770;2023-05-19T10:45:01;1.60;;;1.20;;
65751;SDS011;52486;51.098;13.770;2023-05-19T10:47:30;1.92;;;1.25;;
65751;SDS011;52486;51.098;13.770;2023-05-19T10:49:59;2.08;;;1.30;;
65751;SDS011;52486;51.098;13.770;2023-05-19T10:52:25;1.38;;;1.05;;
65751;SDS011;52486;51.098;13.770;2023-05-19T10:54:53;1.80;;;1.10;;
65751;SDS011;52486;51.098;13.770;2023-05-19T10:57:26;1.63;;;1.15;;
65751;SDS011;52486;51.098;13.770;2023-05-19T10:59:54;1.90;;;1.20;;
65751;SDS011;52486;51.098;13.770;2023-05-19T11:02:37;1.40;;;1.30;;
65751;SDS011;52486;51.098;13.770;2023-05-19T11:05:46;2.22;;;1.23;;
65751;SDS011;52486;51.098;13.770;2023-05-19T11:07:54;2.17;;;1.10;;
65751;SDS011;52486;51.098;13.770;2023-05-19T11:10:23;1.00;;;0.95;;
65751;SDS011;52486;51.098;13.770;2023-05-19T11:12:50;6.40;;;1.40;;
65751;SDS011;52486;51.098;13.770;2023-05-19T11:15:16;1.55;;;1.23;;
65751;SDS011;52486;51.098;13.770;2023-05-19T11:17:46;1.45;;;1.00;;
65751;SDS011;52486;51.098;13.770;2023-05-19T11:22:39;2.53;;;1.20;;
65751;SDS011;52486;51.098;13.770;2023-05-19T11:25:05;1.20;;;1.10;;
65751;SDS011;52486;51.098;13.770;2023-05-19T11:27:34;1.90;;;1.20;;
65751;SDS011;52486;51.098;13.770;2023-05-19T11:32:34;1.20;;;1.10;;
65751;SDS011;52486;51.098;13.770;2023-05-19T11:35:03;1.10;;;1.00;;
65751;SDS011;52486;51.098;13.770;2023-05-19T11:37:33;2.08;;;1.30;;
65751;SDS011;52486;51.098;13.770;2023-05-19T11:40:03;1.20;;;1.10;;
65751;SDS011;52486;51.098;13.770;2023-05-19T11:42:33;1.33;;;1.10;;
65751;SDS011;52486;51.098;13.770;2023-05-19T11:44:59;4.07;;;1.40;;
65751;SDS011;52486;51.098;13.770;2023-05-19T11:47:25;1.05;;;0.98;;
65751;SDS011;52486;51.098;13.770;2023-05-19T11:49:53;1.65;;;1.25;;
65751;SDS011;52486;51.098;13.770;2023-05-19T11:52:23;1.67;;;1.20;;
65751;SDS011;52486;51.098;13.770;2023-05-19T11:54:51;1.20;;;1.10;;
65751;SDS011;52486;51.098;13.770;2023-05-19T11:57:17;1.30;;;1.10;;
65751;SDS011;52486;51.098;13.770;2023-05-19T11:59:43;1.20;;;1.10;;
65751;SDS011;52486;51.098;13.770;2023-05-19T12:04:38;1.40;;;1.20;;
65751;SDS011;52486;51.098;13.770;2023-05-19T12:07:04;1.33;;;1.23;;
65751;SDS011;52486;51.098;13.770;2023-05-19T12:09:30;1.58;;;1.05;;
65751;SDS011;52486;51.098;13.770;2023-05-19T12:11:57;1.48;;;1.20;;
65751;SDS011;52486;51.098;13.770;2023-05-19T12:14:24;1.30;;;1.20;;
65751;SDS011;52486;51.098;13.770;2023-05-19T12:16:51;1.13;;;1.05;;
65751;SDS011;52486;51.098;13.770;2023-05-19T12:19:17;1.23;;;0.95;;
65751;SDS011;52486;51.098;13.770;2023-05-19T12:21:43;1.52;;;1.00;;
65751;SDS011;52486;51.098;13.770;2023-05-19T12:24:09;1.08;;;1.00;;
65751;SDS011;52486;51.098;13.770;2023-05-19T12:26:36;1.38;;;1.05;;
65751;SDS011;52486;51.098;13.770;2023-05-19T12:29:05;1.95;;;1.10;;
65751;SDS011;52486;51.098;13.770;2023-05-19T12:31:31;2.97;;;1.20;;
65751;SDS011;52486;51.098;13.770;2023-05-19T12:33:59;1.02;;;1.00;;
65751;SDS011;52486;51.098;13.770;2023-05-19T12:36:25;1.00;;;0.93;;
65751;SDS011;52486;51.098;13.770;2023-05-19T12:38:53;1.20;;;1.00;;
65751;SDS011;52486;51.098;13.770;2023-05-19T12:41:19;2.03;;;1.10;;
65751;SDS011;52486;51.098;13.770;2023-05-19T12:43:47;1.10;;;1.00;;
65751;SDS011;52486;51.098;13.770;2023-05-19T12:46:14;2.28;;;1.30;;
65751;SDS011;52486;51.098;13.770;2023-05-19T12:48:44;1.13;;;0.95;;
65751;SDS011;52486;51.098;13.770;2023-05-19T12:51:14;1.35;;;1.10;;
65751;SDS011;52486;51.098;13.770;2023-05-19T12:53:41;2.03;;;1.15;;
65751;SDS011;52486;51.098;13.770;2023-05-19T12:56:11;1.13;;;1.02;;
65751;SDS011;52486;51.098;13.770;2023-05-19T12:58:38;1.15;;;1.00;;
65751;SDS011;52486;51.098;13.770;2023-05-19T13:01:04;1.85;;;1.17;;
65751;SDS011;52486;51.098;13.770;2023-05-19T13:03:31;1.58;;;1.02;;
65751;SDS011;52486;51.098;13.770;2023-05-19T13:05:57;1.13;;;1.02;;
65751;SDS011;52486;51.098;13.770;2023-05-19T13:08:24;1.17;;;1.00;;
65751;SDS011;52486;51.098;13.770;2023-05-19T13:10:51;1.40;;;1.10;;
65751;SDS011;52486;51.098;13.770;2023-05-19T13:13:18;1.38;;;1.13;;
65751;SDS011;52486;51.098;13.770;2023-05-19T13:15:45;2.92;;;1.30;;
65751;SDS011;52486;51.098;13.770;2023-05-19T13:18:14;1.70;;;1.20;;
65751;SDS011;52486;51.098;13.770;2023-05-19T13:20:41;1.30;;;1.20;;
65751;SDS011;52486;51.098;13.770;2023-05-19T13:23:12;1.75;;;0.90;;
65751;SDS011;52486;51.098;13.770;2023-05-19T13:28:04;1.42;;;1.20;;
65751;SDS011;52486;51.098;13.770;2023-05-19T13:30:34;1.20;;;1.10;;
65751;SDS011;52486;51.098;13.770;2023-05-19T13:33:01;0.93;;;0.90;;
65751;SDS011;52486;51.098;13.770;2023-05-19T13:35:27;1.35;;;1.20;;
65751;SDS011;52486;51.098;13.770;2023-05-19T13:37:54;1.40;;;0.95;;
65751;SDS011;52486;51.098;13.770;2023-05-19T13:40:20;1.33;;;1.17;;
65751;SDS011;52486;51.098;13.770;2023-05-19T13:42:48;1.30;;;1.10;;
65751;SDS011;52486;51.098;13.770;2023-05-19T13:45:14;1.20;;;0.90;;
65751;SDS011;52486;51.098;13.770;2023-05-19T13:47:40;1.58;;;1.10;;
65751;SDS011;52486;51.098;13.770;2023-05-19T13:50:06;1.90;;;1.30;;
65751;SDS011;52486;51.098;13.770;2023-05-19T13:52:32;1.30;;;1.20;;
65751;SDS011;52486;51.098;13.770;2023-05-19T13:54:58;1.10;;;1.00;;
65751;SDS011;52486;51.098;13.770;2023-05-19T13:57:24;2.30;;;1.02;;
65751;SDS011;52486;51.098;13.770;2023-05-19T13:59:50;1.05;;;1.00;;
65751;SDS011;52486;51.098;13.770;2023-05-19T14:02:16;1.50;;;1.10;;
65751;SDS011;52486;51.098;13.770;2023-05-19T14:04:43;3.67;;;1.20;;
65751;SDS011;52486;51.098;13.770;2023-05-19T14:07:10;1.90;;;1.15;;
65751;SDS011;52486;51.098;13.770;2023-05-19T14:09:36;1.70;;;1.30;;
65751;SDS011;52486;51.098;13.770;2023-05-19T14:12:02;1.40;;;1.30;;
65751;SDS011;52486;51.098;13.770;2023-05-19T14:14:30;2.03;;;1.20;;
65751;SDS011;52486;51.098;13.770;2023-05-19T14:16:56;1.20;;;1.10;;
65751;SDS011;52486;51.098;13.770;2023-05-19T14:19:22;1.05;;;1.02;;
65751;SDS011;52486;51.098;13.770;2023-05-19T14:21:54;1.17;;;0.93;;
65751;SDS011;52486;51.098;13.770;2023-05-19T14:24:20;3.22;;;1.00;;
65751;SDS011;52486;51.098;13.770;2023-05-19T14:26:46;1.40;;;1.00;;
65751;SDS011;52486;51.098;13.770;2023-05-19T14:29:13;1.67;;;1.20;;
65751;SDS011;52486;51.098;13.770;2023-05-19T14:31:39;0.95;;;0.88;;
65751;SDS011;52486;51.098;13.770;2023-05-19T14:34:05;1.23;;;1.10;;
65751;SDS011;52486;51.098;13.770;2023-05-19T14:36:31;2.35;;;1.23;;
65751;SDS011;52486;51.098;13.770;2023-05-19T14:38:59;2.28;;;1.20;;
65751;SDS011;52486;51.098;13.770;2023-05-19T14:41:26;1.10;;;0.98;;
65751;SDS011;52486;51.098;13.770;2023-05-19T14:43:52;1.20;;;1.10;;
65751;SDS011;52486;51.098;13.770;2023-05-19T14:46:18;1.17;;;1.08;;
65751;SDS011;52486;51.098;13.770;2023-05-19T14:48:44;1.10;;;1.00;;
65751;SDS011;52486;51.098;13.770;2023-05-19T14:51:10;1.55;;;1.20;;
65751;SDS011;52486;51.098;13.770;2023-05-19T14:53:36;0.93;;;0.85;;
65751;SDS011;52486;51.098;13.770;2023-05-19T14:56:02;1.23;;;0.90;;
65751;SDS011;52486;51.098;13.770;2023-05-19T14:58:28;1.05;;;1.02;;
65751;SDS011;52486;51.098;13.770;2023-05-19T15:00:57;1.65;;;1.02;;
65751;SDS011;52486;51.098;13.770;2023-05-19T15:03:23;1.05;;;0.95;;
65751;SDS011;52486;51.098;13.770;2023-05-19T15:05:50;3.00;;;1.00;;
65751;SDS011;52486;51.098;13.770;2023-05-19T15:08:16;1.00;;;0.90;;
65751;SDS011;52486;51.098;13.770;2023-05-19T15:10:42;1.52;;;1.00;;